createdAt,value
2022-08-03T00:02:16.772Z,1.15
2022-08-03T00:04:43.963Z,1.25
2022-08-03T00:07:10.871Z,1.10
2022-08-03T00:09:37.677Z,0.90
2022-08-03T00:12:04.986Z,0.95
2022-08-03T00:14:31.843Z,1.25
2022-08-03T00:16:58.971Z,1.02
2022-08-03T00:19:25.836Z,1.63
2022-08-03T00:21:52.654Z,1.30
2022-08-03T00:24:20.318Z,0.98
2022-08-03T00:26:47.555Z,1.13
2022-08-03T00:29:14.564Z,1.42
2022-08-03T00:31:52.424Z,2.22
2022-08-03T00:34:35.261Z,1.33
2022-08-03T00:42:31.998Z,1.05
2022-08-03T00:44:58.756Z,1.10
2022-08-03T00:47:25.545Z,1.10
2022-08-03T00:49:52.338Z,1.17
2022-08-03T00:52:19.375Z,1.63
2022-08-03T00:54:46.321Z,2.03
2022-08-03T00:57:13.193Z,1.40
2022-08-03T00:59:39.958Z,1.50
2022-08-03T01:02:06.841Z,2.10
2022-08-03T01:04:33.616Z,1.70
2022-08-03T01:07:10.718Z,1.40
2022-08-03T01:09:56.525Z,1.40
2022-08-03T01:12:57.856Z,1.52
2022-08-03T01:15:37.560Z,1.58
2022-08-03T01:18:18.405Z,1.50
2022-08-03T01:20:49.248Z,1.75
2022-08-03T01:23:35.145Z,1.92
2022-08-03T01:26:36.194Z,1.40
2022-08-03T01:29:22.665Z,1.38
2022-08-03T01:33:00.296Z,1.75
2022-08-03T01:34:52.087Z,1.83
2022-08-03T01:37:26.091Z,1.30
2022-08-03T01:39:57.904Z,1.60
2022-08-03T01:44:53.100Z,1.77
2022-08-03T01:47:21.482Z,1.58
2022-08-03T01:49:50.203Z,1.92
2022-08-03T01:52:21.280Z,1.38
2022-08-03T01:54:52.167Z,1.35
2022-08-03T01:57:19.939Z,1.77
2022-08-03T01:59:50.079Z,1.40
2022-08-03T02:02:33.440Z,1.70
2022-08-03T02:05:01.990Z,1.70
2022-08-03T02:07:30.476Z,1.70
2022-08-03T02:09:59.385Z,1.50
2022-08-03T02:12:28.578Z,1.25
2022-08-03T02:14:56.900Z,1.70
2022-08-03T02:17:39.263Z,1.50
2022-08-03T02:20:12.267Z,1.60
2022-08-03T02:22:43.460Z,0.98
2022-08-03T02:25:12.205Z,1.55
2022-08-03T02:27:46.096Z,1.60
2022-08-03T02:30:14.415Z,1.67
2022-08-03T02:32:45.872Z,1.38
2022-08-03T02:35:17.095Z,2.20
2022-08-03T02:37:50.401Z,1.77
2022-08-03T02:40:19.416Z,1.45
2022-08-03T02:42:49.415Z,1.75
2022-08-03T02:45:18.394Z,1.77
2022-08-03T02:47:54.329Z,2.05
2022-08-03T02:50:23.136Z,1.63
2022-08-03T02:52:51.156Z,1.65
2022-08-03T02:55:21.368Z,1.88
2022-08-03T02:57:48.821Z,1.30
2022-08-03T03:00:27.407Z,1.90
2022-08-03T03:03:01.491Z,1.70
2022-08-03T03:05:55.047Z,1.75
2022-08-03T03:08:20.692Z,1.65
2022-08-03T03:10:53.385Z,1.70
2022-08-03T03:13:23.479Z,1.70
2022-08-03T03:15:52.137Z,1.42
2022-08-03T03:18:22.568Z,1.40
2022-08-03T03:20:50.939Z,1.63
2022-08-03T03:23:18.347Z,1.45
2022-08-03T03:25:45.714Z,1.00
2022-08-03T03:28:12.807Z,1.60
2022-08-03T03:30:39.777Z,1.23
2022-08-03T03:33:07.466Z,1.25
2022-08-03T03:35:38.865Z,1.70
2022-08-03T03:40:35.637Z,1.23
2022-08-03T03:43:03.287Z,1.73
2022-08-03T03:45:31.483Z,1.30
2022-08-03T03:48:01.533Z,1.70
2022-08-03T03:50:30.119Z,1.40
2022-08-03T03:52:56.969Z,1.52
2022-08-03T03:55:24.044Z,1.15
2022-08-03T03:57:51.107Z,1.52
2022-08-03T04:00:19.234Z,1.05
2022-08-03T04:02:46.431Z,1.40
2022-08-03T04:05:32.781Z,1.50
2022-08-03T04:08:20.329Z,1.88
2022-08-03T04:10:59.462Z,1.38
2022-08-03T04:13:38.495Z,1.52
2022-08-03T04:16:07.868Z,1.85
2022-08-03T04:18:36.115Z,1.30
2022-08-03T04:21:06.136Z,2.05
2022-08-03T04:23:35.725Z,1.63
2022-08-03T04:26:05.449Z,1.90
2022-08-03T04:28:33.369Z,1.95
2022-08-03T04:31:03.407Z,1.80
2022-08-03T04:33:33.370Z,1.95
2022-08-03T04:36:06.342Z,1.80
2022-08-03T04:38:38.664Z,1.80
2022-08-03T04:41:07.446Z,1.90
2022-08-03T04:43:35.090Z,2.22
2022-08-03T04:46:02.967Z,2.00
2022-08-03T04:48:30.245Z,1.58
2022-08-03T04:50:57.614Z,1.80
2022-08-03T04:53:24.511Z,1.70
2022-08-03T04:55:51.341Z,1.80
2022-08-03T04:58:18.263Z,2.10
2022-08-03T05:00:45.767Z,1.67
2022-08-03T05:03:20.528Z,1.67
2022-08-03T05:06:01.635Z,1.95
2022-08-03T05:08:46.159Z,1.75
2022-08-03T05:11:15.372Z,2.33
2022-08-03T05:13:42.524Z,1.75
2022-08-03T05:16:09.439Z,2.08
2022-08-03T05:18:36.533Z,1.90
2022-08-03T05:21:04.994Z,2.03
2022-08-03T05:23:31.876Z,1.40
2022-08-03T05:25:58.764Z,2.17
2022-08-03T05:28:25.648Z,2.33
2022-08-03T05:30:52.481Z,1.73
2022-08-03T05:33:19.273Z,2.40
2022-08-03T05:36:01.746Z,2.63
2022-08-03T05:41:22.132Z,2.33
2022-08-03T05:43:46.486Z,2.05
2022-08-03T05:46:13.483Z,2.25
2022-08-03T05:48:41.355Z,2.10
2022-08-03T05:51:11.766Z,2.55
2022-08-03T05:53:42.709Z,2.28
2022-08-03T05:56:14.412Z,1.60
2022-08-03T05:58:46.798Z,2.47
2022-08-03T06:01:17.628Z,2.65
2022-08-03T06:03:45.846Z,3.00
2022-08-03T06:06:12.715Z,1.90
2022-08-03T06:08:40.451Z,2.65
2022-08-03T06:11:07.801Z,2.03
2022-08-03T06:13:34.905Z,2.03
2022-08-03T06:16:01.935Z,2.15
2022-08-03T06:18:28.847Z,2.28
2022-08-03T06:20:55.786Z,2.05
2022-08-03T06:23:25.353Z,2.17
2022-08-03T06:26:09.762Z,2.10
2022-08-03T06:28:51.879Z,2.53
2022-08-03T06:31:32.757Z,2.50
2022-08-03T06:34:34.303Z,2.60
2022-08-03T06:36:48.602Z,2.20
2022-08-03T06:39:15.497Z,1.65
2022-08-03T06:41:44.747Z,2.20
2022-08-03T06:44:12.459Z,2.03
2022-08-03T06:46:39.879Z,2.17
2022-08-03T06:49:07.689Z,2.25
2022-08-03T06:52:06.262Z,2.60
2022-08-03T06:54:24.532Z,2.75
2022-08-03T06:56:51.648Z,2.10
2022-08-03T07:00:08.644Z,1.98
2022-08-03T07:02:05.548Z,1.70
2022-08-03T07:04:32.441Z,1.63
2022-08-03T07:06:59.303Z,1.35
2022-08-03T07:09:26.835Z,1.75
2022-08-03T07:11:54.140Z,1.48
2022-08-03T07:14:21.475Z,1.30
2022-08-03T07:16:48.363Z,1.20
2022-08-03T07:19:15.261Z,1.23
2022-08-03T07:21:42.113Z,1.70
2022-08-03T07:24:09.079Z,1.70
2022-08-03T07:26:35.990Z,1.50
2022-08-03T07:29:03.615Z,1.90
2022-08-03T07:31:38.617Z,1.50
2022-08-03T07:34:05.394Z,2.25
2022-08-03T07:36:32.441Z,1.45
2022-08-03T07:39:01.257Z,1.52
2022-08-03T07:41:44.649Z,1.60
2022-08-03T07:44:11.535Z,1.85
2022-08-03T07:46:38.424Z,1.15
2022-08-03T07:49:05.663Z,1.25
2022-08-03T07:51:32.596Z,1.70
2022-08-03T07:54:00.864Z,1.55
2022-08-03T07:56:28.306Z,1.45
2022-08-03T07:58:55.827Z,1.05
2022-08-03T08:01:23.423Z,1.05
2022-08-03T08:03:52.877Z,0.95
2022-08-03T08:06:20.814Z,1.20
2022-08-03T08:08:47.718Z,1.10
2022-08-03T08:11:14.912Z,1.00
2022-08-03T08:13:41.762Z,0.77
2022-08-03T08:16:08.607Z,0.65
2022-08-03T08:18:35.406Z,0.70
2022-08-03T08:21:03.507Z,0.60
2022-08-03T08:23:43.649Z,0.50
2022-08-03T08:26:12.007Z,0.57
2022-08-03T08:28:39.199Z,0.70
2022-08-03T08:31:06.041Z,0.68
2022-08-03T08:34:02.650Z,0.63
2022-08-03T08:36:21.707Z,0.65
2022-08-03T08:38:48.579Z,0.60
2022-08-03T08:41:16.112Z,0.95
2022-08-03T08:43:43.622Z,0.82
2022-08-03T08:46:22.910Z,0.68
2022-08-03T08:48:51.391Z,0.43
2022-08-03T08:51:20.891Z,0.55
2022-08-03T08:53:52.416Z,0.50
2022-08-03T08:56:22.333Z,0.98
2022-08-03T08:58:53.608Z,0.60
2022-08-03T09:01:24.791Z,0.40
2022-08-03T09:03:54.075Z,0.43
2022-08-03T09:06:22.431Z,0.80
2022-08-03T09:08:49.374Z,0.60
2022-08-03T09:11:16.218Z,0.45
2022-08-03T09:13:43.073Z,0.68
2022-08-03T09:16:21.820Z,0.45
2022-08-03T09:18:52.266Z,0.40
2022-08-03T09:21:34.446Z,0.40
2022-08-03T09:24:05.276Z,0.40
2022-08-03T09:26:36.144Z,0.93
2022-08-03T09:29:08.166Z,0.70
2022-08-03T09:31:43.051Z,0.30
2022-08-03T09:34:15.675Z,0.50
2022-08-03T09:36:50.917Z,0.47
2022-08-03T09:39:40.222Z,0.40
2022-08-03T09:42:15.448Z,0.50
2022-08-03T09:44:45.020Z,0.20
2022-08-03T09:47:16.929Z,0.30
2022-08-03T09:50:06.905Z,0.57
2022-08-03T09:52:38.815Z,0.52
2022-08-03T09:56:34.855Z,0.40
2022-08-03T09:58:07.038Z,0.30
2022-08-03T10:00:55.577Z,0.20
2022-08-03T10:03:23.855Z,0.28
2022-08-03T10:05:53.022Z,0.45
2022-08-03T10:08:23.284Z,0.20
2022-08-03T10:10:55.237Z,0.20
2022-08-03T10:13:23.353Z,0.30
2022-08-03T10:16:21.202Z,0.60
2022-08-03T10:18:37.799Z,0.40
2022-08-03T10:21:10.407Z,0.25
2022-08-03T10:23:38.642Z,0.43
2022-08-03T10:26:08.201Z,0.35
2022-08-03T10:28:44.787Z,0.40
2022-08-03T10:31:14.201Z,0.30
2022-08-03T10:33:53.146Z,0.65
2022-08-03T10:36:24.446Z,0.40
2022-08-03T10:38:53.265Z,0.47
2022-08-03T10:41:22.593Z,0.40
2022-08-03T10:44:07.031Z,0.30
2022-08-03T10:46:36.095Z,0.45
2022-08-03T10:49:03.724Z,0.57
2022-08-03T10:51:32.319Z,0.40
2022-08-03T10:54:01.802Z,0.52
2022-08-03T10:57:13.445Z,0.55
2022-08-03T10:59:47.290Z,0.40
2022-08-03T11:02:15.567Z,0.50
2022-08-03T11:04:42.938Z,0.40
2022-08-03T11:07:19.067Z,0.30
2022-08-03T11:09:50.156Z,0.40
2022-08-03T11:15:05.527Z,0.90
2022-08-03T11:17:46.692Z,0.70
2022-08-03T11:20:59.751Z,0.38
2022-08-03T11:24:04.859Z,0.50
2022-08-03T11:26:34.297Z,0.38
2022-08-03T11:29:30.722Z,0.47
2022-08-03T11:31:58.086Z,0.50
2022-08-03T11:34:25.818Z,0.30
2022-08-03T11:37:28.509Z,0.30
2022-08-03T11:42:25.014Z,0.30
2022-08-03T11:44:54.891Z,0.45
2022-08-03T11:47:23.182Z,0.73
2022-08-03T11:49:51.888Z,0.50
2022-08-03T11:52:19.627Z,0.60
2022-08-03T11:54:56.539Z,0.38
2022-08-03T11:58:58.131Z,0.37
2022-08-03T12:00:30.263Z,0.45
2022-08-03T12:02:58.017Z,0.50
2022-08-03T12:05:51.777Z,0.50
2022-08-03T12:08:28.328Z,0.50
2022-08-03T12:10:57.479Z,0.30
2022-08-03T12:14:36.707Z,0.40
2022-08-03T12:16:18.911Z,0.50
2022-08-03T12:18:46.760Z,0.50
2022-08-03T12:21:13.649Z,0.50
2022-08-03T12:23:40.437Z,0.40
2022-08-03T12:26:09.199Z,0.57
2022-08-03T12:28:38.320Z,0.88
2022-08-03T12:31:13.316Z,0.60
2022-08-03T12:34:00.372Z,0.35
2022-08-03T12:36:28.511Z,0.50
2022-08-03T12:38:57.962Z,0.60
2022-08-03T12:41:52.271Z,0.30
2022-08-03T12:44:29.228Z,0.30
2022-08-03T12:46:59.012Z,0.50
2022-08-03T12:49:26.218Z,0.60
2022-08-03T12:51:53.319Z,0.50
2022-08-03T12:54:31.643Z,0.50
2022-08-03T12:57:16.031Z,0.30
2022-08-03T12:59:53.407Z,0.30
2022-08-03T13:02:23.572Z,0.40
2022-08-03T13:04:52.230Z,0.60
2022-08-03T13:07:20.201Z,0.40
2022-08-03T13:09:52.920Z,0.65
2022-08-03T13:12:22.068Z,0.45
2022-08-03T13:14:51.881Z,0.40
2022-08-03T13:17:19.390Z,0.50
2022-08-03T13:19:47.408Z,0.28
2022-08-03T13:22:19.658Z,0.30
2022-08-03T13:24:48.626Z,0.32
2022-08-03T13:28:01.233Z,0.63
2022-08-03T13:30:04.015Z,0.45
2022-08-03T13:32:31.046Z,0.30
2022-08-03T13:34:57.905Z,0.40
2022-08-03T13:37:25.462Z,0.65
2022-08-03T13:40:00.228Z,0.30
2022-08-03T13:42:29.535Z,0.43
2022-08-03T13:44:56.458Z,0.40
2022-08-03T13:47:23.401Z,0.63
2022-08-03T13:50:00.227Z,0.55
2022-08-03T13:52:33.246Z,0.50
2022-08-03T13:55:00.953Z,0.38
2022-08-03T13:58:02.505Z,0.40
2022-08-03T14:00:26.323Z,0.40
2022-08-03T14:02:56.168Z,0.40
2022-08-03T14:05:25.349Z,0.35
2022-08-03T14:07:56.851Z,0.30
2022-08-03T14:10:35.822Z,0.90
2022-08-03T14:13:03.222Z,0.77
2022-08-03T14:15:30.241Z,0.20
2022-08-03T14:17:58.404Z,0.30
2022-08-03T14:20:38.110Z,0.30
2022-08-03T14:23:14.241Z,0.32
2022-08-03T14:25:49.979Z,0.40
2022-08-03T14:28:22.647Z,0.40
2022-08-03T14:30:50.662Z,0.40
2022-08-03T14:33:17.702Z,0.40
2022-08-03T14:35:44.557Z,0.45
2022-08-03T14:38:11.336Z,0.38
2022-08-03T14:40:38.215Z,0.30
2022-08-03T14:43:05.041Z,0.60
2022-08-03T14:45:31.923Z,0.30
2022-08-03T14:50:31.146Z,0.47
2022-08-03T14:50:51.334Z,0.43
2022-08-03T14:53:19.157Z,0.43
2022-08-03T14:55:50.447Z,0.57
2022-08-03T14:58:20.547Z,0.30
2022-08-03T15:00:49.190Z,0.30
2022-08-03T15:03:16.923Z,0.15
2022-08-03T15:05:44.688Z,0.40
2022-08-03T15:08:11.772Z,0.20
2022-08-03T15:10:43.929Z,0.43
2022-08-03T15:13:15.433Z,0.85
2022-08-03T15:15:43.685Z,0.40
2022-08-03T15:18:10.765Z,0.30
2022-08-03T15:20:46.709Z,0.28
2022-08-03T15:23:15.633Z,0.38
2022-08-03T15:26:04.144Z,0.50
2022-08-03T15:28:31.119Z,0.30
2022-08-03T15:30:57.980Z,0.30
2022-08-03T15:33:24.903Z,0.32
2022-08-03T15:35:53.025Z,0.43
2022-08-03T15:38:20.217Z,0.30
2022-08-03T15:40:47.215Z,0.30
2022-08-03T15:43:14.085Z,0.40
2022-08-03T15:45:42.908Z,0.30
2022-08-03T15:48:09.692Z,0.40
2022-08-03T15:50:36.517Z,0.40
2022-08-03T15:53:04.009Z,0.38
2022-08-03T15:55:31.514Z,0.20
2022-08-03T15:59:04.665Z,0.50
2022-08-03T16:00:45.271Z,0.45
2022-08-03T16:03:12.075Z,0.22
2022-08-03T16:05:38.858Z,0.30
2022-08-03T16:08:10.276Z,0.40
2022-08-03T16:10:40.673Z,0.77
2022-08-03T16:13:07.981Z,0.25
2022-08-03T16:15:37.454Z,0.55
2022-08-03T16:20:34.437Z,0.20
2022-08-03T16:23:10.448Z,0.40
2022-08-03T16:25:44.343Z,0.55
2022-08-03T16:28:17.070Z,0.50
2022-08-03T16:30:45.827Z,0.40
2022-08-03T16:33:17.015Z,0.32
2022-08-03T16:35:46.051Z,0.38
2022-08-03T16:38:18.617Z,0.63
2022-08-03T16:40:47.233Z,0.43
2022-08-03T16:43:18.558Z,0.60
2022-08-03T16:45:47.102Z,0.25
2022-08-03T16:48:15.337Z,0.25
2022-08-03T16:50:42.278Z,0.28
2022-08-03T16:53:12.812Z,0.40
2022-08-03T16:55:53.749Z,0.50
2022-08-03T16:58:41.184Z,0.40
2022-08-03T17:01:21.521Z,0.50
2022-08-03T17:04:01.272Z,0.47
2022-08-03T17:06:33.821Z,0.38
2022-08-03T17:09:02.225Z,0.35
2022-08-03T17:11:32.933Z,0.40
2022-08-03T17:14:00.200Z,0.55
2022-08-03T17:16:27.346Z,0.57
2022-08-03T17:19:02.335Z,0.50
2022-08-03T17:21:34.663Z,0.50
2022-08-03T17:24:31.831Z,0.50
2022-08-03T17:27:08.905Z,0.45
2022-08-03T17:29:45.175Z,0.40
2022-08-03T17:32:18.105Z,0.50
2022-08-03T17:34:48.988Z,0.50
2022-08-03T17:37:50.673Z,0.50
2022-08-03T17:40:04.166Z,1.40
2022-08-03T17:42:38.904Z,0.82
2022-08-03T17:45:07.298Z,0.60
2022-08-03T17:47:41.139Z,0.60
2022-08-03T17:50:25.352Z,0.80
2022-08-03T17:53:07.781Z,0.60
2022-08-03T17:56:06.592Z,0.80
2022-08-03T17:59:08.252Z,0.90
2022-08-03T18:02:14.531Z,0.50
2022-08-03T18:07:47.784Z,0.60
2022-08-03T18:10:23.331Z,0.47
2022-08-03T18:13:10.807Z,0.57
2022-08-03T18:15:43.377Z,1.50
2022-08-03T18:18:14.141Z,1.77
2022-08-03T18:23:36.536Z,1.70
2022-08-03T18:26:10.682Z,0.90
2022-08-03T18:28:39.770Z,1.70
2022-08-03T18:31:11.814Z,1.00
2022-08-03T18:34:16.412Z,1.00
2022-08-03T18:36:30.479Z,0.82
2022-08-03T18:39:00.137Z,0.70
2022-08-03T18:41:32.555Z,0.70
2022-08-03T18:44:07.298Z,1.25
2022-08-03T18:47:17.051Z,1.10
2022-08-03T18:50:00.565Z,1.27
2022-08-03T18:52:53.266Z,1.58
2022-08-03T18:56:02.343Z,0.90
2022-08-03T18:58:38.944Z,0.95
2022-08-03T19:02:00.496Z,1.02
2022-08-03T19:04:17.507Z,1.45
2022-08-03T19:06:58.942Z,1.85
2022-08-03T19:09:47.577Z,1.20
2022-08-03T19:12:30.627Z,1.25
2022-08-03T19:15:12.419Z,1.15
2022-08-03T19:17:52.803Z,1.00
2022-08-03T19:20:28.742Z,1.00
2022-08-03T19:22:57.938Z,0.95
2022-08-03T19:25:34.256Z,0.88
2022-08-03T19:30:55.277Z,1.17
2022-08-03T19:33:26.432Z,1.20
2022-08-03T19:35:57.649Z,1.13
2022-08-03T19:38:28.399Z,0.60
2022-08-03T19:41:03.883Z,0.80
2022-08-03T19:43:53.986Z,0.70
2022-08-03T19:46:27.640Z,0.80
2022-08-03T19:49:10.343Z,1.08
2022-08-03T19:52:01.961Z,0.98
2022-08-03T19:54:29.547Z,0.80
2022-08-03T19:56:58.830Z,0.80
2022-08-03T19:59:26.675Z,0.57
2022-08-03T20:01:54.186Z,0.85
2022-08-03T20:04:21.648Z,0.98
2022-08-03T20:06:50.039Z,1.25
2022-08-03T20:09:18.651Z,0.70
2022-08-03T20:11:47.772Z,0.90
2022-08-03T20:14:20.737Z,0.70
2022-08-03T20:16:53.533Z,0.95
2022-08-03T20:19:20.879Z,0.90
2022-08-03T20:21:49.664Z,1.00
2022-08-03T20:24:28.087Z,1.27
2022-08-03T20:26:58.168Z,1.42
2022-08-03T20:30:05.107Z,1.40
2022-08-03T20:32:24.650Z,1.30
2022-08-03T20:34:52.952Z,1.40
2022-08-03T20:37:20.149Z,1.55
2022-08-03T20:39:49.574Z,1.10
2022-08-03T20:42:21.434Z,1.35
2022-08-03T20:45:04.422Z,1.58
2022-08-03T20:47:35.684Z,1.40
2022-08-03T20:50:07.578Z,1.38
2022-08-03T20:52:49.495Z,1.40
2022-08-03T20:55:20.324Z,1.88
2022-08-03T20:58:06.626Z,1.50
2022-08-03T21:00:33.435Z,1.70
2022-08-03T21:03:00.328Z,1.50
2022-08-03T21:05:48.018Z,1.50
2022-08-03T21:08:16.951Z,2.00
2022-08-03T21:10:45.946Z,2.08
2022-08-03T21:12:56.492Z,0.70
2022-08-03T21:13:02.204Z,1.65
2022-08-03T21:13:04.493Z,1.13
2022-08-03T21:13:39.882Z,1.30
2022-08-03T21:16:14.182Z,0.98
2022-08-03T21:18:52.199Z,1.13
2022-08-03T21:21:21.357Z,1.55
2022-08-03T21:23:53.455Z,0.93
2022-08-03T21:26:25.545Z,1.05
2022-08-03T21:28:55.190Z,1.05
2022-08-03T21:31:25.368Z,1.00
2022-08-03T21:34:01.866Z,0.90
2022-08-03T21:36:30.726Z,0.90
2022-08-03T21:38:58.286Z,0.90
2022-08-03T21:41:32.207Z,1.17
2022-08-03T21:44:00.535Z,1.60
2022-08-03T21:46:33.283Z,0.82
2022-08-03T21:50:05.120Z,1.02
2022-08-03T21:51:50.638Z,1.08
2022-08-03T21:54:20.602Z,1.13
2022-08-03T21:56:51.053Z,1.10
2022-08-03T21:59:20.216Z,1.15
2022-08-03T22:01:51.307Z,0.95
2022-08-03T22:04:53.122Z,1.08
2022-08-03T22:07:09.050Z,1.38
2022-08-03T22:09:36.936Z,1.30
2022-08-03T22:12:04.259Z,0.98
2022-08-03T22:14:33.291Z,1.60
2022-08-03T22:17:06.247Z,1.00
2022-08-03T22:19:34.031Z,1.00
2022-08-03T22:22:06.025Z,0.80
2022-08-03T22:24:35.876Z,0.80
2022-08-03T22:27:22.541Z,1.35
2022-08-03T22:29:50.757Z,1.05
2022-08-03T22:32:17.636Z,1.38
2022-08-03T22:34:47.342Z,1.08
2022-08-03T22:37:17.538Z,1.55
2022-08-03T22:39:44.693Z,1.42
2022-08-03T22:42:12.293Z,2.25
2022-08-03T22:44:39.416Z,1.20
2022-08-03T22:47:06.775Z,1.08
2022-08-03T22:49:36.075Z,1.40
2022-08-03T22:52:03.353Z,1.48
2022-08-03T22:54:32.006Z,1.50
2022-08-03T22:56:59.512Z,1.48
2022-08-03T22:59:40.030Z,2.25
2022-08-03T23:02:20.982Z,1.42
2022-08-03T23:04:52.796Z,1.40
2022-08-03T23:07:22.888Z,2.03
2022-08-03T23:09:50.224Z,1.70
2022-08-03T23:12:20.800Z,1.55
2022-08-03T23:14:56.010Z,1.50
2022-08-03T23:17:24.415Z,1.77
2022-08-03T23:19:52.779Z,1.25
2022-08-03T23:22:30.305Z,1.27
2022-08-03T23:24:59.014Z,1.30
2022-08-03T23:27:27.534Z,1.45
2022-08-03T23:29:57.361Z,1.40
2022-08-03T23:32:26.504Z,1.77
2022-08-03T23:35:15.317Z,1.58
2022-08-03T23:38:04.760Z,1.25
2022-08-03T23:40:31.035Z,1.70
2022-08-03T23:42:59.227Z,2.00
2022-08-03T23:45:29.996Z,1.63
2022-08-03T23:47:56.852Z,1.53
2022-08-03T23:50:24.042Z,1.60
2022-08-03T23:53:21.315Z,1.70
2022-08-03T23:56:00.073Z,1.92
2022-08-03T23:58:35.962Z,1.50
